sensor_id;sensor_type;location;lat;lon;timestamp;pressure;altitude;pressure_sealevel;temperature;humidity
55317;BME280;41178;48.956;8.130;2023-02-18T00:01:29;100605.28;;;11.02;57.69
55317;BME280;41178;48.956;8.130;2023-02-18T00:06:33;100572.88;;;10.46;58.33
55317;BME280;41178;48.956;8.130;2023-02-18T00:11:36;100642.38;;;12.66;54.00
55317;BME280;41178;48.956;8.130;2023-02-18T00:16:39;100598.31;;;11.81;54.11
55317;BME280;41178;48.956;8.130;2023-02-18T00:21:41;100642.03;;;12.92;52.51
55317;BME280;41178;48.956;8.130;2023-02-18T00:26:44;100646.97;;;12.58;54.65
55317;BME280;41178;48.956;8.130;2023-02-18T00:31:45;100626.78;;;12.30;54.14
55317;BME280;41178;48.956;8.130;2023-02-18T00:36:47;100591.19;;;12.05;54.68
55317;BME280;41178;48.956;8.130;2023-02-18T00:41:49;100636.25;;;12.81;53.59
55317;BME280;41178;48.956;8.130;2023-02-18T00:46:51;100627.63;;;12.85;53.45
55317;BME280;41178;48.956;8.130;2023-02-18T00:51:53;100631.75;;;13.57;51.53
55317;BME280;41178;48.956;8.130;2023-02-18T00:56:55;100538.59;;;11.88;53.94
55317;BME280;41178;48.956;8.130;2023-02-18T01:01:56;100612.09;;;13.19;52.21
55317;BME280;41178;48.956;8.130;2023-02-18T01:06:58;100548.13;;;11.42;55.55
55317;BME280;41178;48.956;8.130;2023-02-18T01:12:00;100580.09;;;12.94;51.97
55317;BME280;41178;48.956;8.130;2023-02-18T01:17:02;100580.28;;;13.07;52.07
55317;BME280;41178;48.956;8.130;2023-02-18T01:22:03;100569.09;;;12.26;53.88
55317;BME280;41178;48.956;8.130;2023-02-18T01:27:07;100541.97;;;12.44;53.32
55317;BME280;41178;48.956;8.130;2023-02-18T01:32:09;100542.97;;;10.67;57.58
55317;BME280;41178;48.956;8.130;2023-02-18T01:37:11;100553.41;;;11.75;55.99
55317;BME280;41178;48.956;8.130;2023-02-18T01:42:26;100545.00;;;10.89;56.60
55317;BME280;41178;48.956;8.130;2023-02-18T01:47:28;100536.81;;;11.16;57.14
55317;BME280;41178;48.956;8.130;2023-02-18T01:52:30;100532.78;;;12.15;54.47
55317;BME280;41178;48.956;8.130;2023-02-18T01:57:35;100566.38;;;12.66;53.72
55317;BME280;41178;48.956;8.130;2023-02-18T02:02:40;100567.34;;;13.11;51.84
55317;BME280;41178;48.956;8.130;2023-02-18T02:07:44;100587.06;;;13.56;51.28
55317;BME280;41178;48.956;8.130;2023-02-18T02:18:28;100600.13;;;14.04;50.79
55317;BME280;41178;48.956;8.130;2023-02-18T02:39:37;100529.88;;;11.94;55.02
55317;BME280;41178;48.956;8.130;2023-02-18T02:46:05;100468.59;;;12.06;53.95
55317;BME280;41178;48.956;8.130;2023-02-18T02:50:51;100480.91;;;10.96;57.26
55317;BME280;41178;48.956;8.130;2023-02-18T02:55:53;100460.94;;;11.71;55.39
55317;BME280;41178;48.956;8.130;2023-02-18T03:06:40;100435.69;;;12.35;53.24
55317;BME280;41178;48.956;8.130;2023-02-18T03:12:05;100463.78;;;12.85;52.82
55317;BME280;41178;48.956;8.130;2023-02-18T03:17:16;100396.97;;;11.60;52.96
55317;BME280;41178;48.956;8.130;2023-02-18T03:22:29;100457.31;;;12.80;53.22
55317;BME280;41178;48.956;8.130;2023-02-18T03:27:34;100480.06;;;11.60;55.91
55317;BME280;41178;48.956;8.130;2023-02-18T03:32:38;100423.19;;;11.41;55.52
55317;BME280;41178;48.956;8.130;2023-02-18T03:37:56;100429.50;;;11.49;55.13
55317;BME280;41178;48.956;8.130;2023-02-18T03:43:01;100430.03;;;12.53;52.95
55317;BME280;41178;48.956;8.130;2023-02-18T03:48:04;100426.34;;;12.31;53.76
55317;BME280;41178;48.956;8.130;2023-02-18T03:53:05;100429.19;;;12.06;54.07
55317;BME280;41178;48.956;8.130;2023-02-18T03:58:07;100418.44;;;11.20;55.79
55317;BME280;41178;48.956;8.130;2023-02-18T04:03:09;100363.81;;;10.74;55.57
55317;BME280;41178;48.956;8.130;2023-02-18T04:08:10;100438.34;;;12.81;53.22
55317;BME280;41178;48.956;8.130;2023-02-18T04:13:12;100441.19;;;11.95;54.50
55317;BME280;41178;48.956;8.130;2023-02-18T04:18:14;100403.47;;;11.66;54.92
55317;BME280;41178;48.956;8.130;2023-02-18T04:23:15;100439.91;;;11.04;57.54
55317;BME280;41178;48.956;8.130;2023-02-18T04:28:17;100425.00;;;11.80;54.82
55317;BME280;41178;48.956;8.130;2023-02-18T04:33:19;100451.31;;;11.85;54.77
55317;BME280;41178;48.956;8.130;2023-02-18T04:38:21;100437.69;;;12.79;53.08
55317;BME280;41178;48.956;8.130;2023-02-18T04:43:23;100415.78;;;12.52;53.78
55317;BME280;41178;48.956;8.130;2023-02-18T04:48:25;100437.03;;;12.77;53.16
55317;BME280;41178;48.956;8.130;2023-02-18T04:53:26;100417.53;;;11.99;54.28
55317;BME280;41178;48.956;8.130;2023-02-18T04:58:28;100414.38;;;12.18;54.19
55317;BME280;41178;48.956;8.130;2023-02-18T05:03:30;100435.59;;;12.28;54.19
55317;BME280;41178;48.956;8.130;2023-02-18T05:08:32;100423.53;;;11.38;56.58
55317;BME280;41178;48.956;8.130;2023-02-18T05:13:34;100403.22;;;11.84;55.18
55317;BME280;41178;48.956;8.130;2023-02-18T05:18:35;100375.91;;;11.49;54.88
55317;BME280;41178;48.956;8.130;2023-02-18T05:23:37;100389.69;;;11.77;54.54
55317;BME280;41178;48.956;8.130;2023-02-18T05:28:39;100391.38;;;13.07;52.20
55317;BME280;41178;48.956;8.130;2023-02-18T05:33:40;100391.34;;;12.01;54.45
55317;BME280;41178;48.956;8.130;2023-02-18T05:38:42;100363.13;;;11.90;54.37
55317;BME280;41178;48.956;8.130;2023-02-18T05:43:44;100350.09;;;12.25;53.21
55317;BME280;41178;48.956;8.130;2023-02-18T05:49:04;100403.81;;;11.94;54.98
55317;BME280;41178;48.956;8.130;2023-02-18T05:54:06;100368.53;;;12.43;53.95
55317;BME280;41178;48.956;8.130;2023-02-18T05:59:07;100373.03;;;12.66;53.54
55317;BME280;41178;48.956;8.130;2023-02-18T06:04:10;100376.16;;;12.54;53.47
55317;BME280;41178;48.956;8.130;2023-02-18T06:09:11;100377.25;;;12.45;53.64
55317;BME280;41178;48.956;8.130;2023-02-18T06:14:13;100396.56;;;13.08;52.80
55317;BME280;41178;48.956;8.130;2023-02-18T06:19:15;100374.81;;;12.35;53.62
55317;BME280;41178;48.956;8.130;2023-02-18T06:24:17;100394.81;;;12.71;52.47
55317;BME280;41178;48.956;8.130;2023-02-18T06:29:18;100360.44;;;12.13;53.45
55317;BME280;41178;48.956;8.130;2023-02-18T06:34:20;100381.84;;;12.74;52.98
55317;BME280;41178;48.956;8.130;2023-02-18T06:39:22;100400.00;;;12.87;52.73
55317;BME280;41178;48.956;8.130;2023-02-18T06:44:23;100383.22;;;12.55;52.82
55317;BME280;41178;48.956;8.130;2023-02-18T06:49:25;100429.56;;;13.47;50.96
55317;BME280;41178;48.956;8.130;2023-02-18T06:54:26;100383.22;;;12.85;52.73
55317;BME280;41178;48.956;8.130;2023-02-18T06:59:28;100377.03;;;12.85;52.58
55317;BME280;41178;48.956;8.130;2023-02-18T07:04:30;100403.16;;;13.36;51.92
55317;BME280;41178;48.956;8.130;2023-02-18T07:09:31;100371.44;;;12.57;53.35
55317;BME280;41178;48.956;8.130;2023-02-18T07:14:33;100345.25;;;12.73;52.69
55317;BME280;41178;48.956;8.130;2023-02-18T07:19:34;100339.69;;;12.75;52.57
55317;BME280;41178;48.956;8.130;2023-02-18T07:24:36;100299.81;;;11.58;53.92
55317;BME280;41178;48.956;8.130;2023-02-18T07:29:38;100333.53;;;12.22;52.02
55317;BME280;41178;48.956;8.130;2023-02-18T07:34:40;100356.75;;;12.82;51.85
55317;BME280;41178;48.956;8.130;2023-02-18T07:39:42;100352.66;;;13.01;51.81
55317;BME280;41178;48.956;8.130;2023-02-18T07:44:43;100350.34;;;12.98;51.90
55317;BME280;41178;48.956;8.130;2023-02-18T07:49:46;100366.06;;;13.31;51.35
55317;BME280;41178;48.956;8.130;2023-02-18T07:54:47;100315.72;;;11.83;52.94
55317;BME280;41178;48.956;8.130;2023-02-18T07:59:49;100344.88;;;13.06;51.19
55317;BME280;41178;48.956;8.130;2023-02-18T08:04:51;100353.13;;;13.35;50.56
55317;BME280;41178;48.956;8.130;2023-02-18T08:09:53;100341.75;;;12.73;51.13
55317;BME280;41178;48.956;8.130;2023-02-18T08:14:55;100345.13;;;13.26;50.81
55317;BME280;41178;48.956;8.130;2023-02-18T08:19:56;100337.28;;;13.10;51.08
55317;BME280;41178;48.956;8.130;2023-02-18T08:24:58;100347.75;;;13.05;51.07
55317;BME280;41178;48.956;8.130;2023-02-18T08:30:00;100374.41;;;13.73;50.21
55317;BME280;41178;48.956;8.130;2023-02-18T08:35:02;100355.97;;;13.18;50.52
55317;BME280;41178;48.956;8.130;2023-02-18T08:40:05;100326.25;;;13.05;50.89
55317;BME280;41178;48.956;8.130;2023-02-18T08:45:07;100338.28;;;13.09;51.17
55317;BME280;41178;48.956;8.130;2023-02-18T08:50:09;100324.09;;;13.15;51.48
55317;BME280;41178;48.956;8.130;2023-02-18T08:55:11;100334.69;;;13.02;51.30
55317;BME280;41178;48.956;8.130;2023-02-18T09:00:14;100326.16;;;12.98;50.77
55317;BME280;41178;48.956;8.130;2023-02-18T09:05:16;100346.34;;;13.09;51.76
55317;BME280;41178;48.956;8.130;2023-02-18T09:10:18;100337.13;;;13.70;50.77
55317;BME280;41178;48.956;8.130;2023-02-18T09:15:19;100304.47;;;13.51;50.03
55317;BME280;41178;48.956;8.130;2023-02-18T09:20:21;100316.41;;;13.63;50.00
55317;BME280;41178;48.956;8.130;2023-02-18T09:25:23;100339.22;;;13.53;50.10
55317;BME280;41178;48.956;8.130;2023-02-18T09:30:24;100291.09;;;12.85;50.38
55317;BME280;41178;48.956;8.130;2023-02-18T09:35:26;100302.41;;;13.32;50.22
55317;BME280;41178;48.956;8.130;2023-02-18T09:40:30;100297.00;;;12.95;51.13
55317;BME280;41178;48.956;8.130;2023-02-18T09:45:33;100288.63;;;13.20;50.30
55317;BME280;41178;48.956;8.130;2023-02-18T09:50:35;100306.81;;;14.26;49.20
55317;BME280;41178;48.956;8.130;2023-02-18T09:55:38;100259.63;;;13.15;50.56
55317;BME280;41178;48.956;8.130;2023-02-18T10:00:48;100277.78;;;13.50;50.71
55317;BME280;41178;48.956;8.130;2023-02-18T10:05:59;100311.50;;;14.17;49.36
55317;BME280;41178;48.956;8.130;2023-02-18T10:11:03;100288.78;;;13.33;50.74
55317;BME280;41178;48.956;8.130;2023-02-18T10:16:05;100293.13;;;12.68;52.23
55317;BME280;41178;48.956;8.130;2023-02-18T10:26:17;100302.69;;;12.17;53.95
55317;BME280;41178;48.956;8.130;2023-02-18T10:31:27;100299.88;;;11.96;54.38
55317;BME280;41178;48.956;8.130;2023-02-18T10:36:45;100268.06;;;12.61;53.07
55317;BME280;41178;48.956;8.130;2023-02-18T10:47:34;100252.38;;;13.31;51.43
55317;BME280;41178;48.956;8.130;2023-02-18T10:52:43;100279.06;;;14.25;50.72
55317;BME280;41178;48.956;8.130;2023-02-18T10:57:53;100270.16;;;14.59;49.68
55317;BME280;41178;48.956;8.130;2023-02-18T11:06:40;100325.66;;;10.80;57.01
55317;BME280;41178;48.956;8.130;2023-02-18T11:11:43;100310.47;;;10.56;57.60
55317;BME280;41178;48.956;8.130;2023-02-18T11:16:51;100292.03;;;9.88;59.31
55317;BME280;41178;48.956;8.130;2023-02-18T11:22:18;100281.69;;;11.37;56.60
55317;BME280;41178;48.956;8.130;2023-02-18T11:32:26;100306.31;;;10.53;58.41
55317;BME280;41178;48.956;8.130;2023-02-18T11:37:31;100235.00;;;10.77;57.05
55317;BME280;41178;48.956;8.130;2023-02-18T11:42:33;100254.25;;;11.03;57.20
55317;BME280;41178;48.956;8.130;2023-02-18T11:47:36;100266.00;;;11.80;55.08
55317;BME280;41178;48.956;8.130;2023-02-18T11:52:46;100285.91;;;11.31;57.29
55317;BME280;41178;48.956;8.130;2023-02-18T11:57:57;100277.34;;;11.04;57.78
55317;BME280;41178;48.956;8.130;2023-02-18T12:03:01;100283.50;;;10.74;59.03
55317;BME280;41178;48.956;8.130;2023-02-18T12:08:12;100269.16;;;11.06;58.49
55317;BME280;41178;48.956;8.130;2023-02-18T12:29:27;100244.34;;;10.73;57.37
55317;BME280;41178;48.956;8.130;2023-02-18T13:17:32;100258.72;;;11.66;51.70
55317;BME280;41178;48.956;8.130;2023-02-18T13:22:36;100285.75;;;12.02;50.68
55317;BME280;41178;48.956;8.130;2023-02-18T13:28:25;100303.78;;;11.62;50.90
55317;BME280;41178;48.956;8.130;2023-02-18T13:49:32;100257.66;;;11.75;48.93
55317;BME280;41178;48.956;8.130;2023-02-18T13:54:44;100257.22;;;12.69;47.15
55317;BME280;41178;48.956;8.130;2023-02-18T13:59:58;100283.91;;;12.55;46.76
55317;BME280;41178;48.956;8.130;2023-02-18T14:25:41;100292.56;;;11.67;47.94
55317;BME280;41178;48.956;8.130;2023-02-18T14:30:43;100252.34;;;11.43;47.90
55317;BME280;41178;48.956;8.130;2023-02-18T14:36:09;100306.25;;;11.95;48.23
55317;BME280;41178;48.956;8.130;2023-02-18T14:52:36;100276.59;;;11.96;48.69
55317;BME280;41178;48.956;8.130;2023-02-18T14:57:54;100283.50;;;12.73;47.92
55317;BME280;41178;48.956;8.130;2023-02-18T15:02:58;100261.16;;;12.13;48.89
55317;BME280;41178;48.956;8.130;2023-02-18T15:08:05;100286.63;;;12.77;47.60
55317;BME280;41178;48.956;8.130;2023-02-18T15:13:21;100273.34;;;12.54;47.75
55317;BME280;41178;48.956;8.130;2023-02-18T15:23:29;100304.44;;;12.10;48.76
55317;BME280;41178;48.956;8.130;2023-02-18T15:28:32;100243.06;;;11.92;48.31
55317;BME280;41178;48.956;8.130;2023-02-18T15:33:34;100278.78;;;12.61;47.97
55317;BME280;41178;48.956;8.130;2023-02-18T15:38:36;100259.06;;;12.53;48.54
55317;BME280;41178;48.956;8.130;2023-02-18T15:43:57;100268.72;;;11.95;49.23
55317;BME280;41178;48.956;8.130;2023-02-18T15:49:06;100251.19;;;11.15;49.55
55317;BME280;41178;48.956;8.130;2023-02-18T15:54:16;100252.44;;;11.50;49.69
55317;BME280;41178;48.956;8.130;2023-02-18T16:04:23;100239.41;;;12.23;48.89
55317;BME280;41178;48.956;8.130;2023-02-18T16:09:28;100231.47;;;12.60;48.43
55317;BME280;41178;48.956;8.130;2023-02-18T16:14:46;100211.09;;;10.67;51.41
55317;BME280;41178;48.956;8.130;2023-02-18T16:19:52;100253.63;;;11.24;50.44
55317;BME280;41178;48.956;8.130;2023-02-18T16:25:16;100220.94;;;10.75;50.49
55317;BME280;41178;48.956;8.130;2023-02-18T16:30:23;100252.75;;;10.61;51.42
55317;BME280;41178;48.956;8.130;2023-02-18T16:35:29;100256.31;;;11.24;50.67
55317;BME280;41178;48.956;8.130;2023-02-18T16:40:40;100220.00;;;10.03;52.29
55317;BME280;41178;48.956;8.130;2023-02-18T16:45:47;100246.56;;;11.09;51.24
55317;BME280;41178;48.956;8.130;2023-02-18T16:50:50;100231.38;;;12.08;49.74
55317;BME280;41178;48.956;8.130;2023-02-18T16:55:53;100263.91;;;10.81;51.71
55317;BME280;41178;48.956;8.130;2023-02-18T17:00:54;100215.34;;;9.89;53.55
55317;BME280;41178;48.956;8.130;2023-02-18T17:05:56;100251.41;;;11.05;52.09
55317;BME280;41178;48.956;8.130;2023-02-18T17:10:59;100247.75;;;11.29;52.11
55317;BME280;41178;48.956;8.130;2023-02-18T17:16:00;100245.16;;;10.81;52.06
55317;BME280;41178;48.956;8.130;2023-02-18T17:21:02;100261.97;;;10.98;51.86
55317;BME280;41178;48.956;8.130;2023-02-18T17:26:10;100263.53;;;10.45;52.98
55317;BME280;41178;48.956;8.130;2023-02-18T17:31:15;100248.16;;;10.30;52.84
55317;BME280;41178;48.956;8.130;2023-02-18T17:36:18;100238.88;;;10.02;53.17
55317;BME280;41178;48.956;8.130;2023-02-18T17:41:20;100268.59;;;10.79;53.21
55317;BME280;41178;48.956;8.130;2023-02-18T17:46:21;100266.13;;;9.81;54.38
55317;BME280;41178;48.956;8.130;2023-02-18T17:51:26;100268.44;;;10.25;52.96
55317;BME280;41178;48.956;8.130;2023-02-18T17:56:28;100292.84;;;10.86;53.24
55317;BME280;41178;48.956;8.130;2023-02-18T18:01:30;100279.66;;;9.95;54.45
55317;BME280;41178;48.956;8.130;2023-02-18T18:06:31;100302.44;;;10.64;53.56
55317;BME280;41178;48.956;8.130;2023-02-18T18:11:36;100282.16;;;9.81;54.45
55317;BME280;41178;48.956;8.130;2023-02-18T18:16:38;100281.41;;;10.44;52.94
55317;BME280;41178;48.956;8.130;2023-02-18T18:21:40;100307.72;;;10.08;54.68
55317;BME280;41178;48.956;8.130;2023-02-18T18:26:42;100304.88;;;9.85;54.35
55317;BME280;41178;48.956;8.130;2023-02-18T18:31:43;100298.03;;;9.90;53.83
55317;BME280;41178;48.956;8.130;2023-02-18T18:36:45;100301.50;;;9.66;53.89
55317;BME280;41178;48.956;8.130;2023-02-18T18:41:47;100312.16;;;10.57;52.47
55317;BME280;41178;48.956;8.130;2023-02-18T18:46:48;100318.25;;;10.18;53.12
55317;BME280;41178;48.956;8.130;2023-02-18T18:51:50;100311.38;;;10.15;53.07
55317;BME280;41178;48.956;8.130;2023-02-18T18:56:51;100286.09;;;9.27;54.41
55317;BME280;41178;48.956;8.130;2023-02-18T19:01:55;100303.19;;;9.59;54.26
55317;BME280;41178;48.956;8.130;2023-02-18T19:06:56;100303.84;;;9.61;54.94
55317;BME280;41178;48.956;8.130;2023-02-18T19:11:58;100302.19;;;9.76;54.21
55317;BME280;41178;48.956;8.130;2023-02-18T19:17:00;100298.03;;;9.90;54.33
55317;BME280;41178;48.956;8.130;2023-02-18T19:22:02;100284.31;;;10.02;54.22
55317;BME280;41178;48.956;8.130;2023-02-18T19:27:04;100292.50;;;9.59;54.51
55317;BME280;41178;48.956;8.130;2023-02-18T19:32:06;100274.41;;;8.85;56.53
55317;BME280;41178;48.956;8.130;2023-02-18T19:37:07;100295.06;;;9.10;56.05
55317;BME280;41178;48.956;8.130;2023-02-18T19:42:09;100247.41;;;8.46;57.16
55317;BME280;41178;48.956;8.130;2023-02-18T19:47:12;100298.09;;;9.15;57.43
55317;BME280;41178;48.956;8.130;2023-02-18T19:52:13;100294.75;;;9.21;56.67
55317;BME280;41178;48.956;8.130;2023-02-18T19:57:16;100285.78;;;9.30;56.77
55317;BME280;41178;48.956;8.130;2023-02-18T20:02:21;100295.78;;;9.36;57.73
55317;BME280;41178;48.956;8.130;2023-02-18T20:07:23;100247.38;;;8.38;58.12
55317;BME280;41178;48.956;8.130;2023-02-18T20:12:25;100267.94;;;8.54;58.16
55317;BME280;41178;48.956;8.130;2023-02-18T20:17:27;100282.63;;;9.68;57.19
55317;BME280;41178;48.956;8.130;2023-02-18T20:22:28;100287.00;;;8.67;59.12
55317;BME280;41178;48.956;8.130;2023-02-18T20:27:31;100288.78;;;8.84;58.21
55317;BME280;41178;48.956;8.130;2023-02-18T20:32:34;100249.91;;;9.99;57.01
55317;BME280;41178;48.956;8.130;2023-02-18T20:37:35;100283.22;;;9.20;57.30
55317;BME280;41178;48.956;8.130;2023-02-18T20:42:37;100283.13;;;9.47;57.05
55317;BME280;41178;48.956;8.130;2023-02-18T20:47:39;100277.00;;;9.87;56.08
55317;BME280;41178;48.956;8.130;2023-02-18T20:52:40;100285.34;;;10.01;56.24
55317;BME280;41178;48.956;8.130;2023-02-18T20:57:42;100307.63;;;9.34;57.17
55317;BME280;41178;48.956;8.130;2023-02-18T21:02:44;100304.09;;;8.82;57.68
55317;BME280;41178;48.956;8.130;2023-02-18T21:07:45;100293.13;;;9.53;56.45
55317;BME280;41178;48.956;8.130;2023-02-18T21:12:47;100339.31;;;9.20;57.85
55317;BME280;41178;48.956;8.130;2023-02-18T21:17:49;100318.19;;;9.68;56.42
55317;BME280;41178;48.956;8.130;2023-02-18T21:22:50;100296.00;;;10.17;56.54
55317;BME280;41178;48.956;8.130;2023-02-18T21:27:52;100309.34;;;9.68;56.50
55317;BME280;41178;48.956;8.130;2023-02-18T21:32:54;100326.13;;;9.19;57.18
55317;BME280;41178;48.956;8.130;2023-02-18T21:37:56;100285.38;;;8.14;59.79
55317;BME280;41178;48.956;8.130;2023-02-18T21:42:59;100310.97;;;9.36;56.94
55317;BME280;41178;48.956;8.130;2023-02-18T21:48:00;100304.41;;;9.89;56.35
55317;BME280;41178;48.956;8.130;2023-02-18T21:53:22;100305.88;;;9.75;55.66
55317;BME280;41178;48.956;8.130;2023-02-18T21:58:24;100293.34;;;9.76;54.94
55317;BME280;41178;48.956;8.130;2023-02-18T22:03:25;100330.66;;;11.54;52.92
55317;BME280;41178;48.956;8.130;2023-02-18T22:08:27;100323.34;;;10.68;54.28
55317;BME280;41178;48.956;8.130;2023-02-18T22:13:29;100325.84;;;10.70;54.42
55317;BME280;41178;48.956;8.130;2023-02-18T22:18:31;100296.34;;;8.97;57.44
55317;BME280;41178;48.956;8.130;2023-02-18T22:23:33;100337.72;;;9.44;56.37
55317;BME280;41178;48.956;8.130;2023-02-18T22:28:35;100301.59;;;10.63;55.36
55317;BME280;41178;48.956;8.130;2023-02-18T22:33:37;100342.06;;;9.62;57.08
55317;BME280;41178;48.956;8.130;2023-02-18T22:38:39;100290.41;;;9.20;56.31
55317;BME280;41178;48.956;8.130;2023-02-18T22:43:41;100307.06;;;9.06;56.89
55317;BME280;41178;48.956;8.130;2023-02-18T22:48:43;100316.47;;;9.34;56.93
55317;BME280;41178;48.956;8.130;2023-02-18T22:53:45;100315.38;;;9.70;56.23
55317;BME280;41178;48.956;8.130;2023-02-18T22:58:49;100298.56;;;10.75;54.45
55317;BME280;41178;48.956;8.130;2023-02-18T23:03:52;100312.41;;;9.14;57.30
55317;BME280;41178;48.956;8.130;2023-02-18T23:08:54;100284.66;;;10.07;55.52
55317;BME280;41178;48.956;8.130;2023-02-18T23:13:56;100292.78;;;10.55;54.75
55317;BME280;41178;48.956;8.130;2023-02-18T23:19:16;100312.66;;;9.37;57.45
55317;BME280;41178;48.956;8.130;2023-02-18T23:24:18;100280.28;;;9.73;56.13
55317;BME280;41178;48.956;8.130;2023-02-18T23:29:20;100312.00;;;9.35;57.88
55317;BME280;41178;48.956;8.130;2023-02-18T23:34:22;100264.13;;;8.30;59.56
55317;BME280;41178;48.956;8.130;2023-02-18T23:39:25;100294.28;;;9.34;57.61
55317;BME280;41178;48.956;8.130;2023-02-18T23:44:27;100279.22;;;9.25;58.04
55317;BME280;41178;48.956;8.130;2023-02-18T23:49:29;100278.09;;;8.84;58.08
55317;BME280;41178;48.956;8.130;2023-02-18T23:54:31;100239.72;;;9.77;56.48
55317;BME280;41178;48.956;8.130;2023-02-18T23:59:32;100258.41;;;9.53;57.43
